createdAt,value
2022-10-03T00:02:02.713Z,15.07
2022-10-03T00:04:53.701Z,10.47
2022-10-03T00:07:42.912Z,19.93
2022-10-03T00:10:25.626Z,13.10
2022-10-03T00:13:07.694Z,17.87
2022-10-03T00:15:45.133Z,13.50
2022-10-03T00:18:31.482Z,17.27
2022-10-03T00:21:22.103Z,16.60
2022-10-03T00:24:03.936Z,13.90
2022-10-03T00:26:50.957Z,12.53
2022-10-03T00:29:45.445Z,13.53
2022-10-03T00:32:43.692Z,14.50
2022-10-03T00:35:37.373Z,14.67
2022-10-03T00:38:28.206Z,13.90
2022-10-03T00:41:37.167Z,19.57
2022-10-03T00:44:53.329Z,15.67
2022-10-03T00:47:55.680Z,14.57
2022-10-03T00:50:54.798Z,14.87
2022-10-03T00:53:48.799Z,13.40
2022-10-03T00:56:52.999Z,12.37
2022-10-03T00:59:45.049Z,13.43
2022-10-03T01:02:31.712Z,13.63
2022-10-03T01:05:12.591Z,12.67
2022-10-03T01:08:20.802Z,11.47
2022-10-03T01:10:59.206Z,9.30
2022-10-03T01:13:43.002Z,11.03
2022-10-03T01:16:23.184Z,13.63
2022-10-03T01:19:05.154Z,14.10
2022-10-03T01:21:44.213Z,11.10
2022-10-03T01:24:51.929Z,14.50
2022-10-03T01:27:33.097Z,15.90
2022-10-03T01:30:22.629Z,10.17
2022-10-03T01:33:01.342Z,11.30
2022-10-03T01:35:40.519Z,11.33
2022-10-03T01:38:22.032Z,11.33
2022-10-03T01:41:03.157Z,13.77
2022-10-03T01:43:43.366Z,14.87
2022-10-03T01:46:22.892Z,12.87
2022-10-03T01:49:00.633Z,12.73
2022-10-03T01:51:39.583Z,17.73
2022-10-03T01:54:19.609Z,12.90
2022-10-03T01:56:57.828Z,9.47
2022-10-03T01:59:40.697Z,14.43
2022-10-03T02:02:18.741Z,11.43
2022-10-03T02:04:57.390Z,10.40
2022-10-03T02:07:36.162Z,7.10
2022-10-03T02:10:19.552Z,13.23
2022-10-03T02:12:57.583Z,11.70
2022-10-03T02:15:34.688Z,8.73
2022-10-03T02:18:16.250Z,12.00
2022-10-03T02:20:50.720Z,11.00
2022-10-03T02:23:39.500Z,12.00
2022-10-03T02:26:32.729Z,11.80
2022-10-03T02:29:26.704Z,11.70
2022-10-03T02:32:18.056Z,14.17
2022-10-03T02:35:39.049Z,19.27
2022-10-03T02:38:59.569Z,10.03
2022-10-03T02:42:03.013Z,13.67
2022-10-03T02:45:21.651Z,11.93
2022-10-03T02:48:34.391Z,11.43
2022-10-03T02:51:59.294Z,14.10
2022-10-03T02:55:04.382Z,9.67
2022-10-03T02:58:22.852Z,13.13
2022-10-03T03:01:45.681Z,16.13
2022-10-03T03:05:17.053Z,13.33
2022-10-03T03:08:24.529Z,11.67
2022-10-03T03:11:47.579Z,12.43
2022-10-03T03:15:05.634Z,11.97
2022-10-03T03:17:38.944Z,7.37
2022-10-03T03:20:31.926Z,14.60
2022-10-03T03:23:36.176Z,12.40
2022-10-03T03:26:28.107Z,9.33
2022-10-03T03:29:10.593Z,12.57
2022-10-03T03:31:47.965Z,10.87
2022-10-03T03:34:25.491Z,7.77
2022-10-03T03:37:03.023Z,12.67
2022-10-03T03:39:59.950Z,13.50
2022-10-03T03:43:20.030Z,11.37
2022-10-03T03:46:14.799Z,10.40
2022-10-03T03:49:10.078Z,6.93
2022-10-03T03:51:50.086Z,13.20
2022-10-03T03:54:54.510Z,7.13
2022-10-03T03:57:48.584Z,10.63
2022-10-03T04:00:20.903Z,12.17
2022-10-03T04:03:18.616Z,10.17
2022-10-03T04:06:05.846Z,9.50
2022-10-03T04:09:00.915Z,12.63
2022-10-03T04:11:45.008Z,9.50
2022-10-03T04:14:43.202Z,14.53
2022-10-03T04:17:55.115Z,8.07
2022-10-03T04:21:03.541Z,13.17
2022-10-03T04:23:51.193Z,9.30
2022-10-03T04:26:37.842Z,10.60
2022-10-03T04:29:42.699Z,11.47
2022-10-03T04:32:26.586Z,9.03
2022-10-03T04:35:26.425Z,9.60
2022-10-03T04:38:08.024Z,9.97
2022-10-03T04:40:49.267Z,12.60
2022-10-03T04:43:43.851Z,14.03
2022-10-03T04:46:29.082Z,11.30
2022-10-03T04:49:06.709Z,11.60
2022-10-03T04:51:55.210Z,10.20
2022-10-03T04:54:35.662Z,8.83
2022-10-03T04:57:11.997Z,10.73
2022-10-03T04:59:50.269Z,8.23
2022-10-03T05:02:43.506Z,9.43
2022-10-03T05:05:49.734Z,12.87
2022-10-03T05:08:34.755Z,9.63
2022-10-03T05:11:15.093Z,11.77
2022-10-03T05:14:00.518Z,9.07
2022-10-03T05:16:42.195Z,8.10
2022-10-03T05:19:42.611Z,12.50
2022-10-03T05:22:24.775Z,12.73
2022-10-03T05:25:04.536Z,11.23
2022-10-03T05:27:43.173Z,11.93
2022-10-03T05:30:20.238Z,10.47
2022-10-03T05:32:55.705Z,9.93
2022-10-03T05:35:36.099Z,11.30
2022-10-03T05:38:39.561Z,9.53
2022-10-03T05:41:25.808Z,13.07
2022-10-03T05:44:05.090Z,8.53
2022-10-03T05:46:58.708Z,9.30
2022-10-03T05:49:56.785Z,12.40
2022-10-03T05:52:58.156Z,12.17
2022-10-03T05:55:47.374Z,11.57
2022-10-03T05:58:52.453Z,9.57
2022-10-03T06:01:53.153Z,14.03
2022-10-03T06:05:03.885Z,10.50
2022-10-03T06:07:48.074Z,11.10
2022-10-03T06:10:50.832Z,8.73
2022-10-03T06:13:41.844Z,10.67
2022-10-03T06:16:30.225Z,12.57
2022-10-03T06:19:27.032Z,24.43
2022-10-03T06:23:05.958Z,10.60
2022-10-03T06:26:28.901Z,8.23
2022-10-03T06:29:47.525Z,10.23
2022-10-03T06:33:05.000Z,11.77
2022-10-03T06:36:12.755Z,8.50
2022-10-03T06:39:29.976Z,9.43
2022-10-03T06:43:04.920Z,9.07
2022-10-03T06:46:21.906Z,11.97
2022-10-03T06:49:34.546Z,10.30
2022-10-03T06:52:28.745Z,8.73
2022-10-03T06:55:31.990Z,12.63
2022-10-03T06:58:51.812Z,8.90
2022-10-03T07:01:50.827Z,13.13
2022-10-03T07:05:08.772Z,15.43
2022-10-03T07:08:24.400Z,14.80
2022-10-03T07:11:08.898Z,12.83
2022-10-03T07:14:14.924Z,12.97
2022-10-03T07:17:28.838Z,7.47
2022-10-03T07:20:30.536Z,13.27
2022-10-03T07:23:50.243Z,12.87
2022-10-03T07:27:00.446Z,11.37
2022-10-03T07:30:05.717Z,14.40
2022-10-03T07:33:21.477Z,4.47
2022-10-03T07:36:42.043Z,8.37
2022-10-03T07:39:51.337Z,9.03
2022-10-03T07:42:50.141Z,6.87
2022-10-03T07:45:42.383Z,11.60
2022-10-03T07:48:52.541Z,8.50
2022-10-03T07:51:30.373Z,8.00
2022-10-03T07:54:39.196Z,6.60
2022-10-03T07:57:48.598Z,7.40
2022-10-03T08:00:23.527Z,5.77
2022-10-03T08:03:52.320Z,11.83
2022-10-03T08:06:26.435Z,10.23
2022-10-03T08:09:32.445Z,10.33
2022-10-03T08:12:40.357Z,9.30
2022-10-03T08:15:14.665Z,11.80
2022-10-03T08:18:31.790Z,5.73
2022-10-03T08:21:02.083Z,8.50
2022-10-03T08:24:18.826Z,10.47
2022-10-03T08:27:13.832Z,7.03
2022-10-03T08:30:19.250Z,8.53
2022-10-03T08:33:41.631Z,5.10
2022-10-03T08:37:07.081Z,10.40
2022-10-03T08:40:20.140Z,7.40
2022-10-03T08:43:39.423Z,14.07
2022-10-03T08:46:47.697Z,8.20
2022-10-03T08:50:02.988Z,9.70
2022-10-03T08:52:56.870Z,5.80
2022-10-03T08:55:45.468Z,6.93
2022-10-03T08:59:07.113Z,9.07
2022-10-03T09:02:21.638Z,10.17
2022-10-03T09:05:48.051Z,6.37
2022-10-03T09:08:45.131Z,7.53
2022-10-03T09:11:58.298Z,7.57
2022-10-03T09:14:42.534Z,6.97
2022-10-03T09:18:05.259Z,5.80
2022-10-03T09:21:37.331Z,11.50
2022-10-03T09:24:45.678Z,8.97
2022-10-03T09:27:43.719Z,6.53
2022-10-03T09:30:25.025Z,5.40
2022-10-03T09:33:46.460Z,8.40
2022-10-03T09:37:02.187Z,7.33
2022-10-03T09:40:33.131Z,8.13
2022-10-03T09:43:38.852Z,6.90
2022-10-03T09:47:11.717Z,5.00
2022-10-03T09:50:31.802Z,5.80
2022-10-03T09:53:55.908Z,5.37
2022-10-03T09:56:54.298Z,7.40
2022-10-03T09:59:41.112Z,3.43
2022-10-03T10:02:40.764Z,4.97
2022-10-03T10:06:08.801Z,3.67
2022-10-03T10:09:23.379Z,4.97
2022-10-03T10:12:47.276Z,5.80
2022-10-03T10:16:13.193Z,5.50
2022-10-03T10:19:18.284Z,4.83
2022-10-03T10:22:10.394Z,3.27
2022-10-03T10:25:47.388Z,7.07
2022-10-03T10:29:00.249Z,7.00
2022-10-03T10:32:22.420Z,4.27
2022-10-03T10:35:29.071Z,4.83
2022-10-03T10:38:40.309Z,5.80
2022-10-03T10:42:00.666Z,5.33
2022-10-03T10:45:24.140Z,7.83
2022-10-03T10:49:02.801Z,4.80
2022-10-03T10:52:21.175Z,8.73
2022-10-03T10:55:46.084Z,5.73
2022-10-03T10:59:23.858Z,4.97
2022-10-03T11:02:39.333Z,5.00
2022-10-03T11:06:17.210Z,5.53
2022-10-03T11:09:47.830Z,7.23
2022-10-03T11:13:13.509Z,5.87
2022-10-03T11:16:34.711Z,5.37
2022-10-03T11:19:41.826Z,7.23
2022-10-03T11:23:13.964Z,3.37
2022-10-03T11:26:19.867Z,4.53
2022-10-03T11:29:40.970Z,3.97
2022-10-03T11:32:54.046Z,3.40
2022-10-03T11:36:14.746Z,4.50
2022-10-03T11:38:51.884Z,5.67
2022-10-03T11:41:35.078Z,4.53
2022-10-03T11:44:18.046Z,5.70
2022-10-03T11:47:14.885Z,4.97
2022-10-03T11:50:19.979Z,4.63
2022-10-03T11:53:08.415Z,6.77
2022-10-03T11:55:44.062Z,3.77
2022-10-03T11:58:34.440Z,1.60
2022-10-03T12:01:22.565Z,5.10
2022-10-03T12:04:01.150Z,3.87
2022-10-03T12:07:17.553Z,2.63
2022-10-03T12:10:02.875Z,3.13
2022-10-03T12:12:39.496Z,5.10
2022-10-03T12:15:29.247Z,4.03
2022-10-03T12:18:07.983Z,4.77
2022-10-03T12:20:59.728Z,2.50
2022-10-03T12:23:58.599Z,3.93
2022-10-03T12:26:43.300Z,3.27
2022-10-03T12:29:14.745Z,5.23
2022-10-03T12:31:55.298Z,3.80
2022-10-03T12:34:38.905Z,4.13
2022-10-03T12:37:29.853Z,3.67
2022-10-03T12:40:06.998Z,4.17
2022-10-03T12:42:42.318Z,4.00
2022-10-03T12:45:22.781Z,6.23
2022-10-03T12:48:30.862Z,4.03
2022-10-03T12:51:06.798Z,4.03
2022-10-03T12:53:48.542Z,3.77
2022-10-03T12:56:28.341Z,6.07
2022-10-03T12:59:28.215Z,4.50
2022-10-03T13:02:27.875Z,3.53
2022-10-03T13:05:29.400Z,3.17
2022-10-03T13:08:03.241Z,3.13
2022-10-03T13:10:41.892Z,5.72
2022-10-03T13:13:30.158Z,4.70
2022-10-03T13:16:21.074Z,4.75
2022-10-03T13:19:04.218Z,4.32
2022-10-03T13:22:03.487Z,5.97
2022-10-03T13:24:38.143Z,5.18
2022-10-03T13:27:22.724Z,4.57
2022-10-03T13:30:04.937Z,3.72
2022-10-03T13:32:36.094Z,2.70
2022-10-03T13:35:41.499Z,3.42
2022-10-03T13:38:46.921Z,5.95
2022-10-03T13:41:27.792Z,3.35
2022-10-03T13:44:02.788Z,4.00
2022-10-03T13:46:45.340Z,4.03
2022-10-03T13:49:23.072Z,3.13
2022-10-03T13:52:02.305Z,5.13
2022-10-03T13:55:00.307Z,1.88
2022-10-03T13:57:34.117Z,4.03
2022-10-03T14:00:09.661Z,3.00
2022-10-03T14:03:11.209Z,5.07
2022-10-03T14:05:55.597Z,5.30
2022-10-03T14:08:52.315Z,5.70
2022-10-03T14:11:36.576Z,2.80
2022-10-03T14:14:44.033Z,5.03
2022-10-03T14:17:18.219Z,3.87
2022-10-03T14:20:16.222Z,5.40
2022-10-03T14:22:58.950Z,2.97
2022-10-03T14:25:30.295Z,2.90
2022-10-03T14:28:04.722Z,3.63
2022-10-03T14:31:04.927Z,3.20
2022-10-03T14:33:42.339Z,4.97
2022-10-03T14:36:34.181Z,3.33
2022-10-03T14:39:22.116Z,4.90
2022-10-03T14:42:14.930Z,3.53
2022-10-03T14:44:47.953Z,5.07
2022-10-03T14:47:18.752Z,2.87
2022-10-03T14:49:58.666Z,3.53
2022-10-03T14:52:40.683Z,1.57
2022-10-03T14:55:16.125Z,2.77
2022-10-03T14:58:09.375Z,2.63
2022-10-03T15:00:45.288Z,2.23
2022-10-03T15:03:44.101Z,4.87
2022-10-03T15:06:34.158Z,3.37
2022-10-03T15:09:11.219Z,3.07
2022-10-03T15:11:49.085Z,4.53
2022-10-03T15:14:17.983Z,4.53
2022-10-03T15:16:52.682Z,4.93
2022-10-03T15:19:29.080Z,7.27
2022-10-03T15:22:08.487Z,4.67
2022-10-03T15:24:40.606Z,5.63
2022-10-03T15:27:14.761Z,5.07
2022-10-03T15:29:44.567Z,2.63
2022-10-03T15:32:25.355Z,4.63
2022-10-03T15:34:58.577Z,4.67
2022-10-03T15:37:33.721Z,3.07
2022-10-03T15:40:12.499Z,7.37
2022-10-03T15:42:51.268Z,6.27
2022-10-03T15:45:26.151Z,4.37
2022-10-03T15:47:56.581Z,4.77
2022-10-03T15:50:29.031Z,4.03
2022-10-03T15:53:17.928Z,3.33
2022-10-03T15:55:52.866Z,4.70
2022-10-03T15:58:29.940Z,3.67
2022-10-03T16:01:08.813Z,6.13
2022-10-03T16:03:47.243Z,5.53
2022-10-03T16:06:22.117Z,4.67
2022-10-03T16:09:14.659Z,2.73
2022-10-03T16:11:54.367Z,6.97
2022-10-03T16:14:27.278Z,6.13
2022-10-03T16:16:59.546Z,5.77
2022-10-03T16:19:34.006Z,5.47
2022-10-03T16:22:23.803Z,6.70
2022-10-03T16:25:05.400Z,3.30
2022-10-03T16:27:41.450Z,4.63
2022-10-03T16:30:21.960Z,7.30
2022-10-03T16:33:00.665Z,6.03
2022-10-03T16:35:36.202Z,3.40
2022-10-03T16:38:09.834Z,3.10
2022-10-03T16:40:38.945Z,3.50
2022-10-03T16:43:11.694Z,5.50
2022-10-03T16:45:45.478Z,5.30
2022-10-03T16:48:38.081Z,4.23
2022-10-03T16:51:16.917Z,7.87
2022-10-03T16:53:46.533Z,6.97
2022-10-03T16:56:18.953Z,5.63
2022-10-03T16:58:54.039Z,5.83
2022-10-03T17:01:33.119Z,5.27
2022-10-03T17:04:22.868Z,5.00
2022-10-03T17:06:57.258Z,9.30
2022-10-03T17:09:37.246Z,9.10
2022-10-03T17:12:13.713Z,5.80
2022-10-03T17:14:44.656Z,6.13
2022-10-03T17:17:30.261Z,7.67
2022-10-03T17:20:05.786Z,6.33
2022-10-03T17:22:41.767Z,8.40
2022-10-03T17:25:40.553Z,9.67
2022-10-03T17:28:16.466Z,12.10
2022-10-03T17:30:51.087Z,10.67
2022-10-03T17:33:24.447Z,19.17
2022-10-03T17:36:05.650Z,15.13
2022-10-03T17:38:50.036Z,12.90
2022-10-03T17:41:22.622Z,11.83
2022-10-03T17:44:07.819Z,8.90
2022-10-03T17:46:45.685Z,8.57
2022-10-03T17:49:23.305Z,10.23
2022-10-03T17:51:53.810Z,8.90
2022-10-03T17:54:27.508Z,10.00
2022-10-03T17:57:05.877Z,8.10
2022-10-03T17:59:44.401Z,9.63
2022-10-03T18:02:22.085Z,10.77
2022-10-03T18:05:01.577Z,11.37
2022-10-03T18:07:31.781Z,10.47
2022-10-03T18:10:00.153Z,11.87
2022-10-03T18:12:36.186Z,9.00
2022-10-03T18:15:41.212Z,10.07
2022-10-03T18:18:49.037Z,9.43
2022-10-03T18:21:28.782Z,6.20
2022-10-03T18:24:43.016Z,7.07
2022-10-03T18:27:40.975Z,8.10
2022-10-03T18:30:17.769Z,22.23
2022-10-03T18:32:46.954Z,12.03
2022-10-03T18:35:21.476Z,8.70
2022-10-03T18:38:06.931Z,8.87
2022-10-03T18:40:41.597Z,10.73
2022-10-03T18:43:32.880Z,6.00
2022-10-03T18:46:15.184Z,7.17
2022-10-03T18:51:54.461Z,7.80
2022-10-03T18:54:35.517Z,6.80
2022-10-03T18:57:15.887Z,7.57
2022-10-03T18:59:50.910Z,7.30
2022-10-03T19:02:28.025Z,7.33
2022-10-03T19:05:03.445Z,9.40
2022-10-03T19:07:38.898Z,8.17
2022-10-03T19:10:31.581Z,5.23
2022-10-03T19:13:10.927Z,7.30
2022-10-03T19:15:57.926Z,8.53
2022-10-03T19:18:33.563Z,12.27
2022-10-03T19:21:09.827Z,10.37
2022-10-03T19:23:43.635Z,7.73
2022-10-03T19:26:23.328Z,9.07
2022-10-03T19:28:55.472Z,10.53
2022-10-03T19:31:27.929Z,13.90
2022-10-03T19:34:03.345Z,13.20
2022-10-03T19:36:37.028Z,15.77
2022-10-03T19:39:07.547Z,14.33
2022-10-03T19:41:40.326Z,12.00
2022-10-03T19:44:10.550Z,16.60
2022-10-03T19:47:03.111Z,11.47
2022-10-03T19:49:51.562Z,13.90
2022-10-03T19:52:31.064Z,18.07
2022-10-03T19:55:13.642Z,13.47
2022-10-03T19:57:46.283Z,17.57
2022-10-03T20:00:30.704Z,12.57
2022-10-03T20:03:16.433Z,13.53
2022-10-03T20:05:54.128Z,10.67
2022-10-03T20:08:32.133Z,12.00
2022-10-03T20:11:15.563Z,8.77
2022-10-03T20:13:46.823Z,11.50
2022-10-03T20:16:17.350Z,14.00
2022-10-03T20:18:49.580Z,10.67
2022-10-03T20:21:21.879Z,15.13
2022-10-03T20:23:50.774Z,9.53
2022-10-03T20:26:32.066Z,12.43
2022-10-03T20:29:18.586Z,9.90
2022-10-03T20:31:47.823Z,10.10
2022-10-03T20:34:22.076Z,11.43
2022-10-03T20:36:55.471Z,12.07
2022-10-03T20:39:29.330Z,12.60
2022-10-03T20:42:05.048Z,12.23
2022-10-03T20:45:04.035Z,9.90
2022-10-03T20:47:49.481Z,10.43
2022-10-03T20:50:25.561Z,12.33
2022-10-03T20:52:58.981Z,11.03
2022-10-03T20:55:32.235Z,13.43
2022-10-03T20:58:14.228Z,10.63
2022-10-03T21:00:48.046Z,8.90
2022-10-03T21:03:29.833Z,11.20
2022-10-03T21:06:00.127Z,10.23
2022-10-03T21:08:34.140Z,11.63
2022-10-03T21:11:05.805Z,9.17
2022-10-03T21:13:42.441Z,9.37
2022-10-03T21:16:20.852Z,7.20
2022-10-03T21:18:51.490Z,10.47
2022-10-03T21:21:26.388Z,8.83
2022-10-03T21:24:04.035Z,10.60
2022-10-03T21:26:37.364Z,8.47
2022-10-03T21:29:29.649Z,11.73
2022-10-03T21:32:16.757Z,8.70
2022-10-03T21:34:53.735Z,13.10
2022-10-03T21:37:34.497Z,9.57
2022-10-03T21:40:19.361Z,8.60
2022-10-03T21:43:02.773Z,8.70
2022-10-03T21:45:42.496Z,12.70
2022-10-03T21:48:21.213Z,8.07
2022-10-03T21:50:58.273Z,9.97
2022-10-03T21:53:39.527Z,10.60
2022-10-03T21:56:31.034Z,13.33
2022-10-03T21:59:28.041Z,6.93
2022-10-03T22:02:07.427Z,11.37
2022-10-03T22:04:43.549Z,7.77
2022-10-03T22:07:16.713Z,11.77
2022-10-03T22:09:50.235Z,12.57
2022-10-03T22:12:19.211Z,8.57
2022-10-03T22:14:57.899Z,8.70
2022-10-03T22:17:36.479Z,10.70
2022-10-03T22:20:19.840Z,7.03
2022-10-03T22:23:17.245Z,6.57
2022-10-03T22:26:02.379Z,7.20
2022-10-03T22:28:43.195Z,10.50
2022-10-03T22:31:23.718Z,10.40
2022-10-03T22:34:08.530Z,8.13
2022-10-03T22:36:38.166Z,8.67
2022-10-03T22:39:11.539Z,7.30
2022-10-03T22:41:42.173Z,8.17
2022-10-03T22:44:13.778Z,9.70
2022-10-03T22:46:47.241Z,9.27
2022-10-03T22:49:21.340Z,11.70
2022-10-03T22:51:54.670Z,8.73
2022-10-03T22:54:24.984Z,11.93
2022-10-03T22:56:56.379Z,14.77
2022-10-03T22:59:28.437Z,9.60
2022-10-03T23:02:00.476Z,10.67
2022-10-03T23:04:36.492Z,10.33
2022-10-03T23:07:50.741Z,9.80
2022-10-03T23:10:36.527Z,14.63
2022-10-03T23:13:11.052Z,12.23
2022-10-03T23:15:42.812Z,10.83
2022-10-03T23:18:44.974Z,12.50
2022-10-03T23:21:14.830Z,11.73
2022-10-03T23:24:04.007Z,15.23
2022-10-03T23:27:11.965Z,10.50
2022-10-03T23:29:40.622Z,11.83
2022-10-03T23:32:10.299Z,11.10
2022-10-03T23:35:22.206Z,16.13
2022-10-03T23:37:51.637Z,15.20
2022-10-03T23:40:45.791Z,14.50
2022-10-03T23:43:35.738Z,13.23
2022-10-03T23:46:06.757Z,9.47
2022-10-03T23:48:45.152Z,12.03
2022-10-03T23:51:16.867Z,17.10
2022-10-03T23:53:51.381Z,11.83
2022-10-03T23:56:33.227Z,16.80
2022-10-03T23:59:17.454Z,13.67
